Time;durP1;ratioP1;P1;durP2;ratioP2;P2;SDS_P1;SDS_P2;PMS_P1;PMS_P2;Temp;Humidity;BMP_temperature;BMP_pressure;BME280_temperature;BME280_humidity;BME280_pressure;Samples;Min_cycle;Max_cycle;Signal;HPM_P1;HPM_P2
2021/09/24 00:02:18;;;;;;;10.75;3.50;;;;;;;15.32;59.02;99733.78;4484920;31;32969;-80
2021/09/24 00:04:47;;;;;;;8.68;3.30;;;;;;;15.44;58.71;99737.47;4480318;31;33685;-80
2021/09/24 00:07:14;;;;;;;4.20;2.25;;;;;;;15.50;58.60;99721.09;4501177;31;33962;-80
2021/09/24 00:09:42;;;;;;;4.25;2.35;;;;;;;15.48;58.81;99708.84;4480201;31;34020;-81
2021/09/24 00:12:10;;;;;;;5.82;2.55;;;;;;;15.47;58.98;99707.12;4482585;31;32878;-80
2021/09/24 00:14:37;;;;;;;5.30;2.42;;;;;;;15.67;58.40;99709.38;4493006;31;33890;-80
2021/09/24 00:17:05;;;;;;;9.80;3.40;;;;;;;15.74;58.24;99704.50;4491214;31;34013;-82
2021/09/24 00:19:33;;;;;;;3.70;2.83;;;;;;;15.78;58.04;99714.84;4461779;31;35664;-80
2021/09/24 00:22:01;;;;;;;7.40;3.25;;;;;;;15.31;59.49;99733.87;4492215;31;33437;-80
2021/09/24 00:24:28;;;;;;;10.63;3.50;;;;;;;15.03;60.65;99713.50;4479447;31;34321;-80
2021/09/24 00:27:00;;;;;;;3.50;2.67;;;;;;;15.01;60.45;99723.41;4492532;31;33896;-79
2021/09/24 00:29:28;;;;;;;6.87;3.03;;;;;;;15.45;58.89;99723.19;4480630;31;34675;-79
2021/09/24 00:32:03;;;;;;;3.40;2.15;;;;;;;15.10;60.01;99715.69;4494687;31;32801;-80
2021/09/24 00:34:31;;;;;;;5.10;2.55;;;;;;;15.00;60.34;99719.87;4496549;31;33670;-80
2021/09/24 00:36:58;;;;;;;3.50;2.55;;;;;;;14.98;60.27;99711.13;4480677;31;33571;-80
2021/09/24 00:39:26;;;;;;;4.35;2.97;;;;;;;15.14;59.60;99704.84;4481008;31;33750;-80
2021/09/24 00:42:01;;;;;;;3.47;2.33;;;;;;;14.78;60.56;99691.13;4467914;31;33582;-80
2021/09/24 00:44:39;;;;;;;3.62;1.92;;;;;;;15.10;59.37;99694.41;4480050;31;34649;-80
2021/09/24 00:47:08;;;;;;;6.62;3.08;;;;;;;15.23;58.92;99680.31;4485409;31;34189;-80
2021/09/24 00:49:36;;;;;;;8.73;2.83;;;;;;;15.36;58.66;99690.06;4472549;31;34162;-80
2021/09/24 00:52:05;;;;;;;3.95;2.87;;;;;;;14.80;60.11;99701.66;4495145;31;33029;-80
2021/09/24 00:54:33;;;;;;;2.65;2.42;;;;;;;14.56;60.92;99693.41;4500798;31;33865;-80
2021/09/24 00:57:02;;;;;;;7.57;2.97;;;;;;;14.56;60.90;99686.28;4496360;31;34026;-80
2021/09/24 00:59:30;;;;;;;5.12;2.72;;;;;;;14.48;61.20;99690.38;4495264;31;34265;-80
2021/09/24 01:01:58;;;;;;;5.37;2.97;;;;;;;14.83;59.89;99675.75;4477095;31;32353;-80
2021/09/24 01:04:26;;;;;;;4.82;2.53;;;;;;;14.68;60.15;99675.88;4486442;31;33271;-80
2021/09/24 01:06:54;;;;;;;3.15;2.17;;;;;;;14.65;60.37;99694.66;4479999;31;33468;-79
2021/09/24 01:09:23;;;;;;;6.43;2.12;;;;;;;14.67;60.06;99684.75;4488365;31;33092;-80
2021/09/24 01:11:51;;;;;;;10.95;2.40;;;;;;;14.58;60.08;99687.06;4480910;31;33357;-79
2021/09/24 01:14:19;;;;;;;4.95;2.85;;;;;;;14.48;60.34;99691.25;4493734;31;33639;-80
2021/09/24 01:16:47;;;;;;;5.55;2.42;;;;;;;14.88;58.85;99678.12;4483902;31;33689;-81
2021/09/24 01:19:14;;;;;;;7.55;2.22;;;;;;;14.55;60.02;99686.41;4486696;31;33785;-82
2021/09/24 01:21:43;;;;;;;6.03;2.97;;;;;;;14.28;60.87;99672.97;4483069;31;33372;-82
2021/09/24 01:24:10;;;;;;;7.78;2.50;;;;;;;14.19;61.36;99678.81;4493150;31;33963;-82
2021/09/24 01:26:51;;;;;;;5.90;2.60;;;;;;;13.79;62.66;99681.22;4500513;31;33719;-82
2021/09/24 01:29:23;;;;;;;3.03;2.33;;;;;;;13.84;62.64;99673.84;4478558;31;33462;-82
2021/09/24 01:31:57;;;;;;;4.60;2.70;;;;;;;13.51;63.65;99668.69;4494802;31;33477;-82
2021/09/24 01:34:25;;;;;;;4.12;2.65;;;;;;;13.58;63.53;99668.28;4479893;31;33059;-82
2021/09/24 01:36:53;;;;;;;5.70;2.70;;;;;;;13.47;63.87;99657.41;4477763;32;34934;-82
2021/09/24 01:39:20;;;;;;;4.90;2.30;;;;;;;13.88;62.16;99627.59;4495818;31;33795;-82
2021/09/24 01:41:49;;;;;;;8.65;3.58;;;;;;;13.73;62.54;99641.78;4469765;31;32449;-82
2021/09/24 01:44:17;;;;;;;6.53;2.72;;;;;;;13.67;62.64;99636.81;4478244;31;34394;-82
2021/09/24 01:46:46;;;;;;;3.72;2.37;;;;;;;13.62;62.92;99638.88;4480715;31;33640;-82
2021/09/24 01:49:14;;;;;;;5.03;2.78;;;;;;;13.80;62.20;99635.16;4493507;31;34440;-82
2021/09/24 01:51:44;;;;;;;7.97;2.80;;;;;;;13.89;62.01;99626.63;4485818;31;33134;-82
2021/09/24 01:54:15;;;;;;;4.50;3.03;;;;;;;13.72;62.68;99621.47;4484977;31;34224;-82
2021/09/24 01:56:46;;;;;;;4.30;2.78;;;;;;;13.56;63.00;99622.38;4479271;31;34579;-82
2021/09/24 01:59:14;;;;;;;4.35;2.42;;;;;;;13.74;62.21;99619.59;4476121;31;33406;-81
2021/09/24 02:01:41;;;;;;;4.12;2.70;;;;;;;13.94;61.34;99611.28;4489438;31;33004;-82
2021/09/24 02:04:11;;;;;;;4.53;2.22;;;;;;;13.84;61.65;99612.78;4491899;31;35322;-82
2021/09/24 02:06:38;;;;;;;3.35;2.53;;;;;;;13.62;62.31;99601.75;4485991;31;33943;-82
2021/09/24 02:09:06;;;;;;;3.92;2.25;;;;;;;13.72;61.95;99601.12;4477631;31;34195;-82
2021/09/24 02:11:34;;;;;;;4.93;2.65;;;;;;;13.49;62.49;99610.44;4472538;31;32796;-82
2021/09/24 02:14:02;;;;;;;3.62;2.47;;;;;;;12.96;64.41;99613.47;4485569;31;34364;-82
2021/09/24 02:16:29;;;;;;;6.85;2.25;;;;;;;13.05;64.35;99618.25;4485835;31;33630;-82
2021/09/24 02:18:58;;;;;;;2.92;1.98;;;;;;;13.12;64.47;99616.12;4457059;31;34083;-82
2021/09/24 02:21:25;;;;;;;3.65;2.17;;;;;;;13.11;64.29;99625.03;4485585;31;32351;-82
2021/09/24 02:23:53;;;;;;;4.40;2.20;;;;;;;13.12;64.48;99624.09;4478670;32;34937;-82
2021/09/24 02:26:21;;;;;;;5.95;2.67;;;;;;;13.08;64.47;99623.41;4489655;31;33639;-81
2021/09/24 02:29:07;;;;;;;6.05;2.20;;;;;;;13.11;64.70;99619.72;4485292;31;34105;-81
2021/09/24 02:31:35;;;;;;;8.65;2.78;;;;;;;13.02;65.26;99615.81;4490910;31;35771;-81
2021/09/24 02:34:03;;;;;;;6.10;2.37;;;;;;;13.36;63.85;99614.75;4491861;31;33389;-82
2021/09/24 02:36:31;;;;;;;5.80;2.33;;;;;;;13.23;64.14;99627.84;4484243;31;34821;-81
2021/09/24 02:38:59;;;;;;;7.87;2.45;;;;;;;13.27;64.18;99626.75;4489847;31;32648;-84
2021/09/24 02:41:27;;;;;;;8.73;3.10;;;;;;;13.56;63.08;99625.03;4492669;31;32718;-83
2021/09/24 02:43:54;;;;;;;6.07;2.72;;;;;;;13.20;64.14;99627.16;4499377;31;33540;-84
2021/09/24 02:46:22;;;;;;;3.17;2.12;;;;;;;13.40;63.56;99624.25;4479487;31;34051;-83
2021/09/24 02:48:50;;;;;;;6.90;2.70;;;;;;;13.31;63.72;99627.44;4472277;31;34126;-81
2021/09/24 02:51:18;;;;;;;4.28;2.17;;;;;;;13.16;64.25;99626.47;4478529;31;33101;-80
2021/09/24 02:53:46;;;;;;;4.35;2.45;;;;;;;13.51;63.14;99618.31;4492580;31;33850;-80
2021/09/24 02:56:14;;;;;;;3.65;2.30;;;;;;;13.05;64.21;99613.84;4477149;31;33061;-80
2021/09/24 02:58:41;;;;;;;4.87;2.33;;;;;;;13.30;63.41;99617.78;4478704;31;33788;-81
2021/09/24 03:01:09;;;;;;;4.12;2.20;;;;;;;13.49;62.69;99622.84;4476694;32;33306;-81
2021/09/24 03:03:37;;;;;;;7.15;2.85;;;;;;;13.70;62.02;99618.06;4479760;31;34694;-81
2021/09/24 03:06:05;;;;;;;3.83;2.42;;;;;;;13.07;63.98;99624.34;4491447;31;33618;-81
2021/09/24 03:08:33;;;;;;;6.37;2.97;;;;;;;13.10;64.43;99624.16;4491278;31;34794;-81
2021/09/24 03:11:01;;;;;;;4.82;2.28;;;;;;;12.86;64.71;99629.03;4492515;31;32996;-81
2021/09/24 03:13:28;;;;;;;5.57;2.58;;;;;;;12.96;64.71;99624.97;4478193;31;33869;-81
2021/09/24 03:15:57;;;;;;;4.22;2.85;;;;;;;12.80;65.09;99626.75;4477307;31;33859;-81
2021/09/24 03:18:25;;;;;;;8.75;3.03;;;;;;;12.90;64.78;99612.03;4492599;31;32637;-81
2021/09/24 03:20:53;;;;;;;4.62;2.15;;;;;;;12.87;65.00;99606.94;4475759;31;33112;-81
2021/09/24 03:23:21;;;;;;;6.18;3.33;;;;;;;13.39;63.08;99603.97;4478173;31;33956;-82
2021/09/24 03:25:49;;;;;;;4.32;2.72;;;;;;;12.96;64.36;99621.44;4490013;31;32609;-81
2021/09/24 03:28:17;;;;;;;4.68;2.58;;;;;;;12.66;65.37;99608.97;4478699;31;33907;-83
2021/09/24 03:30:45;;;;;;;7.28;2.78;;;;;;;12.91;64.59;99612.87;4486058;31;32192;-81
2021/09/24 03:33:13;;;;;;;9.23;4.07;;;;;;;12.95;64.50;99606.47;4493419;31;34026;-81
2021/09/24 03:35:40;;;;;;;4.62;2.78;;;;;;;13.00;64.15;99605.28;4477725;31;34428;-81
2021/09/24 03:38:08;;;;;;;5.57;2.65;;;;;;;13.01;64.08;99604.34;4493476;31;34703;-81
2021/09/24 03:40:36;;;;;;;7.00;2.85;;;;;;;13.11;63.88;99609.12;4491888;31;33146;-82
2021/09/24 03:43:04;;;;;;;3.50;2.70;;;;;;;13.57;62.15;99605.53;4481730;31;33124;-81
2021/09/24 03:45:32;;;;;;;3.12;2.35;;;;;;;12.81;64.36;99601.94;4479471;31;33724;-82
2021/09/24 03:48:00;;;;;;;3.80;2.47;;;;;;;12.72;64.99;99615.72;4474968;31;32793;-81
2021/09/24 03:50:27;;;;;;;6.72;3.28;;;;;;;12.97;64.00;99617.88;4486046;31;34257;-81
2021/09/24 03:52:56;;;;;;;4.20;2.37;;;;;;;12.99;63.90;99614.16;4493388;31;33993;-81
2021/09/24 03:55:23;;;;;;;3.12;2.65;;;;;;;12.72;64.69;99607.75;4501251;31;33947;-81
2021/09/24 03:57:52;;;;;;;6.20;3.00;;;;;;;12.89;64.06;99589.13;4488717;31;34473;-82
2021/09/24 04:00:20;;;;;;;8.18;2.87;;;;;;;13.18;63.15;99605.16;4472008;31;32759;-81
2021/09/24 04:02:48;;;;;;;4.50;3.47;;;;;;;12.84;64.03;99599.13;4484849;31;33555;-81
2021/09/24 04:05:16;;;;;;;5.62;2.87;;;;;;;13.27;62.52;99602.03;4485576;31;33296;-81
2021/09/24 04:07:44;;;;;;;4.85;2.55;;;;;;;12.85;63.93;99598.19;4495484;31;33894;-82
2021/09/24 04:10:11;;;;;;;4.82;2.30;;;;;;;12.86;64.08;99602.53;4466164;31;32321;-81
2021/09/24 04:12:39;;;;;;;3.67;2.85;;;;;;;13.01;63.29;99606.16;4478848;31;32907;-81
2021/09/24 04:15:07;;;;;;;5.25;3.08;;;;;;;12.82;63.60;99599.25;4501003;31;34112;-81
2021/09/24 04:17:35;;;;;;;3.97;2.70;;;;;;;12.67;63.98;99609.81;4479888;31;33705;-82
2021/09/24 04:20:04;;;;;;;5.40;2.60;;;;;;;12.66;64.06;99608.97;4479748;31;33012;-81
2021/09/24 04:22:31;;;;;;;6.72;2.87;;;;;;;12.40;65.01;99607.75;4472808;31;33597;-81
2021/09/24 04:24:59;;;;;;;3.60;2.17;;;;;;;12.72;64.23;99608.66;4492807;31;33662;-81
2021/09/24 04:27:27;;;;;;;3.72;2.80;;;;;;;12.86;63.68;99604.34;4465591;31;33847;-82
2021/09/24 04:29:54;;;;;;;5.25;2.22;;;;;;;12.72;64.20;99608.66;4480078;31;33050;-81
2021/09/24 04:32:23;;;;;;;5.10;2.80;;;;;;;12.80;63.99;99611.69;4486221;31;34488;-83
2021/09/24 04:34:53;;;;;;;2.72;2.37;;;;;;;13.17;62.48;99624.69;4479183;31;33782;-82
2021/09/24 04:37:20;;;;;;;3.28;2.37;;;;;;;12.86;63.29;99613.16;4478907;31;33395;-81
2021/09/24 04:39:48;;;;;;;5.07;2.90;;;;;;;12.60;64.23;99622.56;4492540;31;33072;-81
2021/09/24 04:42:16;;;;;;;4.32;2.80;;;;;;;12.76;63.75;99617.25;4474851;31;33629;-81
2021/09/24 04:44:43;;;;;;;5.55;3.37;;;;;;;12.71;64.08;99619.31;4479314;31;34726;-81
2021/09/24 04:47:11;;;;;;;5.95;2.92;;;;;;;13.01;62.93;99620.25;4500330;31;34637;-83
2021/09/24 04:49:39;;;;;;;3.47;2.70;;;;;;;12.73;63.82;99625.38;4484838;31;33483;-82
2021/09/24 04:52:07;;;;;;;6.40;3.00;;;;;;;13.02;63.01;99627.25;4480413;32;33488;-82
2021/09/24 04:54:35;;;;;;;4.07;3.00;;;;;;;13.09;62.75;99627.75;4489349;31;34698;-82
2021/09/24 04:57:03;;;;;;;3.97;3.03;;;;;;;12.64;64.16;99625.91;4485463;31;33034;-83
2021/09/24 04:59:31;;;;;;;5.50;3.08;;;;;;;12.53;64.67;99630.00;4481914;31;33176;-82
2021/09/24 05:02:00;;;;;;;4.50;2.70;;;;;;;12.59;65.00;99630.59;4494100;31;34934;-82
2021/09/24 05:04:28;;;;;;;4.85;3.03;;;;;;;12.67;65.25;99628.34;4485288;31;33132;-82
2021/09/24 05:06:55;;;;;;;5.80;4.18;;;;;;;12.67;66.11;99615.09;4491534;31;34149;-82
2021/09/24 05:09:23;;;;;;;4.68;2.80;;;;;;;12.76;66.37;99619.91;4489933;31;33081;-82
2021/09/24 05:11:57;;;;;;;4.47;3.15;;;;;;;13.00;65.88;99618.53;4482967;31;33842;-82
2021/09/24 05:14:25;;;;;;;5.80;3.45;;;;;;;13.08;65.99;99620.75;4490953;31;34805;-82
2021/09/24 05:16:52;;;;;;;7.78;3.25;;;;;;;12.66;68.34;99616.91;4482430;31;33404;-82
2021/09/24 05:19:20;;;;;;;5.65;3.17;;;;;;;13.11;67.10;99617.09;4478930;31;33146;-83
2021/09/24 05:21:48;;;;;;;6.70;3.12;;;;;;;13.30;66.55;99621.28;4484335;31;34211;-83
2021/09/24 05:24:16;;;;;;;9.00;3.03;;;;;;;13.70;65.14;99616.28;4485771;31;35081;-83
2021/09/24 05:26:43;;;;;;;5.53;3.25;;;;;;;13.73;65.03;99613.44;4495505;31;33054;-83
2021/09/24 05:29:14;;;;;;;5.55;4.25;;;;;;;14.00;63.98;99608.25;4470131;31;32475;-81
2021/09/24 05:31:42;;;;;;;8.00;3.70;;;;;;;14.23;62.94;99616.62;4498989;31;34609;-82
2021/09/24 05:34:10;;;;;;;6.90;3.50;;;;;;;14.26;62.87;99603.16;4491169;31;34054;-82
2021/09/24 05:36:37;;;;;;;8.85;3.20;;;;;;;14.00;64.01;99605.59;4488317;31;33062;-82
2021/09/24 05:39:05;;;;;;;4.80;3.53;;;;;;;13.98;64.59;99607.50;4489387;31;32752;-82
2021/09/24 05:41:33;;;;;;;6.32;3.75;;;;;;;13.90;65.01;99606.25;4491402;31;33930;-82
2021/09/24 05:44:01;;;;;;;7.97;4.85;;;;;;;14.09;64.69;99605.03;4482998;31;33807;-82
2021/09/24 05:46:28;;;;;;;7.85;4.07;;;;;;;14.57;63.38;99604.78;4474009;31;33055;-82
2021/09/24 05:48:56;;;;;;;7.40;3.75;;;;;;;14.09;65.14;99620.13;4494675;31;33474;-82
2021/09/24 05:51:24;;;;;;;5.18;3.62;;;;;;;14.18;65.16;99618.72;4494471;31;34046;-81
2021/09/24 05:53:52;;;;;;;7.95;3.78;;;;;;;14.29;65.15;99616.22;4487426;31;33730;-81
2021/09/24 05:56:19;;;;;;;9.25;4.18;;;;;;;14.53;64.98;99620.06;4476531;31;34518;-81
2021/09/24 05:58:47;;;;;;;7.57;4.03;;;;;;;14.77;64.60;99625.66;4480039;31;33254;-82
2021/09/24 06:01:15;;;;;;;13.43;4.25;;;;;;;14.75;64.99;99624.03;4475303;31;33020;-82
2021/09/24 06:03:43;;;;;;;5.78;4.15;;;;;;;14.69;65.51;99632.38;4494452;31;34067;-83
2021/09/24 06:06:11;;;;;;;11.43;4.43;;;;;;;15.01;64.55;99625.88;4491283;31;33541;-82
2021/09/24 06:08:39;;;;;;;10.95;4.40;;;;;;;15.03;65.01;99617.78;4475559;31;33344;-83
2021/09/24 06:11:07;;;;;;;7.45;4.70;;;;;;;15.49;64.01;99625.41;4488023;31;33290;-82
2021/09/24 06:13:35;;;;;;;10.48;4.05;;;;;;;15.71;63.97;99614.19;4480572;31;34036;-83
2021/09/24 06:16:02;;;;;;;6.37;4.28;;;;;;;15.76;64.13;99628.03;4480212;31;32788;-83
2021/09/24 06:18:30;;;;;;;6.10;3.30;;;;;;;16.04;64.68;99627.84;4494452;31;33366;-83
2021/09/24 06:20:58;;;;;;;3.97;2.45;;;;;;;16.15;64.08;99621.81;4477590;31;33008;-83
2021/09/24 06:23:26;;;;;;;3.83;2.58;;;;;;;16.20;62.38;99613.50;4478259;31;34123;-83
2021/09/24 06:25:54;;;;;;;3.62;2.50;;;;;;;16.43;61.30;99617.22;4482263;31;33226;-83
2021/09/24 06:28:22;;;;;;;4.57;2.20;;;;;;;17.06;60.52;99625.06;4479196;31;33355;-83
2021/09/24 06:30:50;;;;;;;3.28;2.12;;;;;;;17.05;59.19;99623.38;4479858;31;33301;-83
2021/09/24 06:33:18;;;;;;;2.55;2.15;;;;;;;17.19;58.25;99634.84;4491241;31;35111;-83
2021/09/24 06:35:45;;;;;;;7.40;2.05;;;;;;;17.49;58.03;99640.56;4471611;31;33180;-83
2021/09/24 06:38:14;;;;;;;4.75;2.70;;;;;;;17.37;57.79;99654.81;4476354;31;33532;-83
2021/09/24 06:40:42;;;;;;;3.65;2.60;;;;;;;17.65;56.98;99648.28;4487975;31;34504;-83
2021/09/24 06:43:10;;;;;;;2.72;2.00;;;;;;;17.59;56.66;99662.94;4472864;31;33294;-82
2021/09/24 06:45:37;;;;;;;9.55;2.40;;;;;;;17.92;57.60;99653.38;4478016;31;34232;-83
2021/09/24 06:48:05;;;;;;;9.00;3.42;;;;;;;18.26;55.60;99656.13;4479774;31;32211;-83
2021/09/24 06:50:34;;;;;;;4.20;2.90;;;;;;;17.86;56.96;99661.88;4483619;31;33851;-83
2021/09/24 06:53:03;;;;;;;2.87;2.45;;;;;;;18.22;55.68;99666.19;4490842;31;34133;-81
2021/09/24 06:55:31;;;;;;;4.72;2.45;;;;;;;18.29;55.08;99656.75;4478226;31;33810;-81
2021/09/24 06:57:59;;;;;;;7.53;3.03;;;;;;;18.13;55.26;99656.22;4476449;31;33717;-81
2021/09/24 07:00:27;;;;;;;3.00;2.35;;;;;;;18.34;54.90;99664.41;4489376;31;34209;-81
2021/09/24 07:02:55;;;;;;;4.82;2.55;;;;;;;18.41;55.85;99654.91;4470577;31;34550;-85
2021/09/24 07:05:23;;;;;;;10.13;2.60;;;;;;;18.73;54.18;99654.25;4496026;31;32776;-81
2021/09/24 07:07:50;;;;;;;9.82;2.15;;;;;;;18.90;53.53;99659.94;4482322;31;32334;-81
2021/09/24 07:10:18;;;;;;;4.90;2.40;;;;;;;18.80;54.67;99666.13;4480845;31;34867;-81
2021/09/24 07:12:46;;;;;;;4.50;2.25;;;;;;;19.05;53.66;99659.69;4473813;32;33176;-81
2021/09/24 07:15:15;;;;;;;5.03;2.47;;;;;;;19.04;53.27;99672.22;4476884;31;32854;-81
2021/09/24 07:17:43;;;;;;;4.15;2.35;;;;;;;18.94;53.50;99676.56;4483757;32;32222;-83
2021/09/24 07:20:11;;;;;;;5.20;2.72;;;;;;;18.96;54.28;99671.97;4491451;31;33793;-81
2021/09/24 07:22:38;;;;;;;16.67;2.55;;;;;;;19.34;52.96;99670.69;4479434;31;33668;-82
2021/09/24 07:25:07;;;;;;;3.92;2.67;;;;;;;19.09;53.61;99679.88;4482993;31;33248;-81
2021/09/24 07:27:34;;;;;;;4.25;2.50;;;;;;;18.90;54.80;99683.19;4493372;31;34144;-81
2021/09/24 07:30:02;;;;;;;6.50;2.72;;;;;;;18.76;53.80;99681.59;4494447;31;33696;-81
2021/09/24 07:32:30;;;;;;;5.57;2.83;;;;;;;19.09;53.36;99685.22;4495041;31;34036;-81
2021/09/24 07:34:58;;;;;;;5.03;3.20;;;;;;;19.18;52.89;99676.44;4494312;31;33640;-81
2021/09/24 07:37:25;;;;;;;5.22;2.47;;;;;;;19.39;52.19;99681.87;4476789;31;33360;-81
2021/09/24 07:39:53;;;;;;;2.60;2.20;;;;;;;19.59;52.16;99690.94;4494659;31;33941;-84
2021/09/24 07:42:21;;;;;;;3.65;2.65;;;;;;;19.66;52.60;99694.84;4483007;31;34068;-83
2021/09/24 07:44:48;;;;;;;4.07;2.70;;;;;;;19.89;51.89;99685.75;4492470;31;34499;-81
2021/09/24 07:47:16;;;;;;;3.55;2.83;;;;;;;19.55;51.80;99687.63;4476300;32;33409;-82
2021/09/24 07:49:45;;;;;;;3.37;2.58;;;;;;;19.55;52.62;99692.16;4479871;31;34601;-81
2021/09/24 07:52:12;;;;;;;3.70;2.58;;;;;;;19.56;52.13;99689.37;4493201;31;33669;-81
2021/09/24 07:54:40;;;;;;;3.03;2.50;;;;;;;19.87;51.59;99689.50;4483496;32;33861;-82
2021/09/24 07:57:09;;;;;;;5.25;2.35;;;;;;;20.33;51.33;99690.97;4480672;31;33484;-82
2021/09/24 07:59:36;;;;;;;2.78;1.98;;;;;;;20.68;50.14;99685.25;4479771;31;33908;-82
2021/09/24 08:02:05;;;;;;;4.18;2.83;;;;;;;20.41;51.21;99685.78;4490650;31;33995;-84
2021/09/24 08:04:33;;;;;;;4.97;2.42;;;;;;;20.82;50.31;99678.69;4482217;32;33082;-82
2021/09/24 08:07:01;;;;;;;19.10;3.03;;;;;;;21.17;50.07;99676.41;4480752;32;32239;-82
2021/09/24 08:09:28;;;;;;;4.62;2.35;;;;;;;20.89;50.64;99677.16;4478553;31;34466;-82
2021/09/24 08:11:56;;;;;;;7.90;2.90;;;;;;;21.17;48.33;99679.09;4501645;31;35169;-82
2021/09/24 08:14:24;;;;;;;4.07;2.65;;;;;;;21.14;49.11;99679.34;4478413;31;33050;-82
2021/09/24 08:16:51;;;;;;;5.30;2.33;;;;;;;20.79;48.95;99684.31;4471321;32;33469;-82
2021/09/24 08:19:40;;;;;;;3.85;2.45;;;;;;;20.80;49.97;99700.28;4483059;32;33936;-82
2021/09/24 08:22:08;;;;;;;5.82;2.40;;;;;;;20.77;48.64;99688.97;4473843;31;33265;-82
2021/09/24 08:24:36;;;;;;;3.03;2.37;;;;;;;20.92;48.41;99687.59;4471018;31;33317;-82
2021/09/24 08:27:03;;;;;;;3.83;2.60;;;;;;;20.82;49.11;99692.94;4496736;31;32325;-82
2021/09/24 08:29:31;;;;;;;4.78;2.35;;;;;;;20.86;49.02;99688.16;4474671;31;32593;-82
2021/09/24 08:31:59;;;;;;;2.45;2.22;;;;;;;20.79;48.96;99685.16;4479661;31;34846;-81
2021/09/24 08:34:27;;;;;;;2.60;2.12;;;;;;;20.85;48.67;99691.84;4493140;31;33950;-81
2021/09/24 08:36:54;;;;;;;5.55;2.50;;;;;;;20.71;49.53;99695.72;4478654;32;33290;-81
2021/09/24 08:39:22;;;;;;;5.55;2.65;;;;;;;20.54;49.51;99685.59;4482685;31;34319;-81
2021/09/24 08:41:50;;;;;;;5.80;2.83;;;;;;;20.64;49.33;99690.03;4484540;31;33627;-81
2021/09/24 08:44:21;;;;;;;4.07;3.03;;;;;;;20.58;49.53;99689.72;4481973;31;33500;-81
2021/09/24 08:46:50;;;;;;;2.45;2.25;;;;;;;20.67;49.10;99697.81;4483330;31;33259;-81
2021/09/24 08:49:20;;;;;;;11.25;2.67;;;;;;;20.76;49.28;99704.22;4493660;31;33793;-81
2021/09/24 08:51:47;;;;;;;4.30;2.67;;;;;;;20.77;49.93;99699.69;4490628;31;34793;-81
2021/09/24 08:54:15;;;;;;;5.53;3.20;;;;;;;20.90;49.06;99695.81;4494278;31;34510;-81
2021/09/24 08:56:43;;;;;;;6.22;2.87;;;;;;;21.02;48.96;99701.91;4483518;31;33461;-81
2021/09/24 08:59:10;;;;;;;4.03;2.55;;;;;;;20.92;49.50;99693.81;4475547;31;34099;-81
2021/09/24 09:02:00;;;;;;;4.78;2.28;;;;;;;20.94;48.92;99696.37;4492168;31;34507;-81
2021/09/24 09:04:46;;;;;;;10.93;5.65;;;;;;;20.87;49.29;99689.84;4490840;31;33477;-81
2021/09/24 09:07:17;;;;;;;14.00;6.70;;;;;;;20.93;48.88;99691.97;4481686;31;33496;-81
2021/09/24 09:09:46;;;;;;;15.73;6.78;;;;;;;20.67;50.20;99689.78;4481008;31;32905;-81
2021/09/24 09:12:16;;;;;;;9.00;4.12;;;;;;;21.21;49.30;99699.28;4469204;31;33027;-80
2021/09/24 09:15:02;;;;;;;7.03;2.47;;;;;;;21.16;49.07;99696.16;4500807;31;33864;-81
2021/09/24 09:17:32;;;;;;;4.53;2.83;;;;;;;21.26;48.21;99703.41;4498954;31;34350;-82
2021/09/24 09:20:21;;;;;;;11.38;5.43;;;;;;;20.85;48.97;99716.84;4482827;31;33260;-81
2021/09/24 09:23:04;;;;;;;8.55;3.70;;;;;;;20.78;48.84;99710.28;4479147;31;33837;-81
2021/09/24 09:25:38;;;;;;;4.78;3.22;;;;;;;20.83;49.68;99713.41;4494632;31;33958;-81
2021/09/24 09:28:12;;;;;;;5.87;2.90;;;;;;;20.46;49.24;99708.56;4490721;31;32646;-81
2021/09/24 09:30:41;;;;;;;3.85;2.37;;;;;;;20.85;49.48;99707.94;4471886;31;33244;-81
2021/09/24 09:33:15;;;;;;;9.40;2.47;;;;;;;20.79;48.60;99713.81;4477566;31;34591;-81
2021/09/24 09:35:48;;;;;;;6.12;2.67;;;;;;;21.04;48.47;99713.38;4494235;31;33726;-82
2021/09/24 09:38:20;;;;;;;3.80;2.75;;;;;;;20.95;49.08;99714.19;4480517;31;32907;-81
2021/09/24 09:41:05;;;;;;;4.22;2.50;;;;;;;21.13;48.07;99714.41;4480227;31;33231;-81
2021/09/24 09:43:35;;;;;;;4.03;2.35;;;;;;;21.02;48.21;99714.47;4478660;31;34947;-81
2021/09/24 09:46:06;;;;;;;3.33;2.62;;;;;;;20.82;48.67;99705.50;4482196;31;34391;-81
2021/09/24 09:48:35;;;;;;;3.05;2.28;;;;;;;20.71;49.47;99707.31;4480226;31;33483;-81
2021/09/24 09:51:03;;;;;;;4.70;1.83;;;;;;;21.17;48.22;99700.56;4486415;31;34613;-81
2021/09/24 09:53:31;;;;;;;3.80;2.03;;;;;;;21.30;47.64;99702.13;4487614;31;35271;-81
2021/09/24 09:56:01;;;;;;;3.90;2.47;;;;;;;21.48;47.66;99698.66;4481300;31;34488;-81
2021/09/24 09:58:32;;;;;;;2.47;1.75;;;;;;;21.46;47.07;99697.13;4500835;31;33001;-81
2021/09/24 10:01:08;;;;;;;3.50;1.90;;;;;;;21.12;47.68;99705.47;4495229;31;34771;-82
2021/09/24 10:03:39;;;;;;;3.12;2.08;;;;;;;21.04;47.68;99701.78;4473204;31;33023;-81
2021/09/24 10:06:34;;;;;;;5.07;1.95;;;;;;;21.32;47.27;99705.59;4477155;31;33160;-81
2021/09/24 10:09:04;;;;;;;2.67;1.95;;;;;;;21.21;47.12;99706.50;4478516;31;33229;-82
2021/09/24 10:11:37;;;;;;;1.80;1.70;;;;;;;21.46;47.02;99710.56;4480736;31;34199;-81
2021/09/24 10:14:11;;;;;;;3.17;2.12;;;;;;;21.51;46.54;99716.38;4486512;31;34754;-82
2021/09/24 10:16:44;;;;;;;2.42;2.08;;;;;;;21.34;47.91;99719.72;4483887;31;34325;-81
2021/09/24 10:19:12;;;;;;;2.33;1.98;;;;;;;21.09;47.49;99719.19;4494622;31;33000;-81
2021/09/24 10:21:52;;;;;;;3.60;2.15;;;;;;;21.16;47.42;99714.94;4479619;31;33546;-81
2021/09/24 10:24:20;;;;;;;3.83;2.45;;;;;;;21.38;47.28;99710.41;4499532;31;33975;-81
2021/09/24 10:26:49;;;;;;;3.65;2.35;;;;;;;20.81;48.13;99717.22;4480392;31;34216;-81
2021/09/24 10:29:23;;;;;;;3.28;2.00;;;;;;;20.84;48.26;99712.47;4479221;31;33237;-81
2021/09/24 10:31:51;;;;;;;2.33;2.03;;;;;;;21.08;47.88;99714.81;4481529;31;33569;-81
2021/09/24 10:34:20;;;;;;;5.70;2.20;;;;;;;21.09;47.53;99710.28;4495555;31;34039;-81
2021/09/24 10:37:08;;;;;;;4.12;2.40;;;;;;;20.69;48.25;99706.56;4492803;31;34503;-81
2021/09/24 10:39:37;;;;;;;2.72;2.22;;;;;;;21.06;47.53;99714.06;4470663;32;34085;-81
2021/09/24 10:42:35;;;;;;;2.60;1.92;;;;;;;21.08;47.35;99719.31;4477263;31;34279;-81
2021/09/24 10:45:13;;;;;;;4.55;2.22;;;;;;;20.79;48.30;99724.56;4491106;31;34475;-81
2021/09/24 10:47:48;;;;;;;3.65;2.15;;;;;;;21.09;47.76;99716.50;4484274;31;34091;-81
2021/09/24 10:53:26;;;;;;;2.60;1.98;;;;;;;20.97;47.94;99723.78;4502016;31;33738;-81
2021/09/24 10:55:53;;;;;;;3.87;2.72;;;;;;;20.74;48.49;99721.41;4480474;31;33933;-81
2021/09/24 10:58:27;;;;;;;8.73;2.40;;;;;;;20.79;48.38;99720.03;4493557;31;33044;-81
2021/09/24 11:01:00;;;;;;;6.57;2.30;;;;;;;21.20;47.87;99724.44;4494134;31;33357;-81
2021/09/24 11:03:29;;;;;;;2.12;1.90;;;;;;;21.28;48.80;99720.25;4493551;31;34026;-81
2021/09/24 11:06:04;;;;;;;9.65;2.65;;;;;;;21.25;48.45;99721.34;4483598;31;34038;-81
2021/09/24 11:11:16;;;;;;;5.85;2.00;;;;;;;21.39;47.14;99728.19;4491139;31;32416;-81
2021/09/24 11:13:48;;;;;;;4.37;2.05;;;;;;;21.57;46.91;99720.31;4478586;31;33260;-81
2021/09/24 11:16:19;;;;;;;5.35;2.17;;;;;;;21.61;46.31;99721.75;4468608;31;34024;-81
2021/09/24 11:18:57;;;;;;;2.87;2.15;;;;;;;21.85;46.44;99713.28;4493057;31;33805;-81
2021/09/24 11:22:04;;;;;;;6.18;1.80;;;;;;;21.77;46.54;99715.81;4482075;31;33053;-81
2021/09/24 11:24:34;;;;;;;2.17;1.87;;;;;;;21.66;46.82;99711.44;4493568;31;33545;-81
2021/09/24 11:27:05;;;;;;;3.97;1.75;;;;;;;21.68;46.74;99718.34;4487479;31;32941;-81
2021/09/24 11:29:36;;;;;;;2.37;1.92;;;;;;;21.67;46.16;99711.28;4491339;31;34159;-81
2021/09/24 11:32:09;;;;;;;4.40;2.08;;;;;;;21.93;45.88;99699.97;4490743;31;33453;-81
2021/09/24 11:34:38;;;;;;;2.60;2.40;;;;;;;22.36;46.12;99707.62;4481358;31;32782;-81
2021/09/24 11:37:15;;;;;;;5.87;2.87;;;;;;;21.94;45.65;99701.69;4495352;31;34033;-82
2021/09/24 11:39:43;;;;;;;2.90;1.85;;;;;;;22.34;44.57;99697.97;4492582;31;34016;-81
2021/09/24 11:42:12;;;;;;;2.15;2.03;;;;;;;22.84;44.71;99703.09;4484590;31;32580;-81
2021/09/24 11:44:45;;;;;;;2.58;1.90;;;;;;;23.07;43.04;99693.63;4481002;31;34320;-81
2021/09/24 11:47:27;;;;;;;5.97;2.03;;;;;;;23.42;43.66;99702.81;4494032;31;35174;-81
2021/09/24 11:49:56;;;;;;;2.15;1.95;;;;;;;23.41;43.40;99693.03;4475620;31;33920;-81
2021/09/24 11:52:50;;;;;;;2.42;1.83;;;;;;;23.64;43.08;99699.72;4490998;31;32728;-82